• Join FlightAware (Why Join?)
  • Login
  • US Flag 
Gobble Gobble! 
06:01AM EST


 

Airport Tracker/Info


-or-


 

Live Flight TrackerFlight Track Log ✈ EJM916 ✈ 01-Sep-2013 ✈ KMDW - KCHS

Flight Track Log - Related Links

Times and Time Zones

All times are in EDT time to prevent confusion due to time zone crossing. See the EJM916 flight status page for this flight to view local times or setup timezone preferences in your user account.

Time Position Orientation Groundspeed Altitude Reporting Facility
EDT Latitude Longitude Course Direction KTS MPH feet Rate Location/Type
10:51AM 40.1041 -86.1064 143° Southeast  Level Estimated
10:52AM 40.0455 -86.0508 144° Southeast  Level Estimated
10:53AM 39.9868 -85.9954 144° Southeast  Level Estimated
10:54AM 39.9281 -85.9400 144° Southeast  Level Estimated
10:55AM 39.8693 -85.8848 144° Southeast  Level Estimated
10:56AM 39.8105 -85.8296 144° Southeast  Level Estimated
10:57AM 39.7517 -85.7746 144° Southeast  Level Estimated
10:58AM 39.6929 -85.7196 144° Southeast  Level Estimated
10:59AM 39.6340 -85.6647 144° Southeast  Level Estimated
11:00AM 39.5751 -85.6099 144° Southeast  Level Estimated
11:01AM 39.5162 -85.5552 144° Southeast  Level Estimated
11:02AM 39.4573 -85.5006 144° Southeast  Level Estimated
11:03AM 39.3983 -85.4461 144° Southeast  Level Estimated
11:04AM 39.3394 -85.3917 144° Southeast  Level Estimated
11:05AM 39.2804 -85.3373 145° Southeast  Level Estimated
11:06AM 39.2213 -85.2831 145° Southeast  Level Estimated
11:07AM 39.1623 -85.2290 145° Southeast  Level Estimated
11:08AM 39.1032 -85.1749 145° Southeast  Level Estimated
11:09AM 39.0441 -85.1210 145° Southeast  Level Estimated
11:10AM 38.9850 -85.0671 145° Southeast  Level Estimated
11:11AM 38.9258 -85.0133 145° Southeast  Level Estimated
11:12AM 38.8666 -84.9596 145° Southeast  Level Estimated
11:13AM 38.8074 -84.9060 145° Southeast  Level Estimated
11:14AM 38.7482 -84.8525 145° Southeast  Level Estimated
11:15AM 38.6889 -84.7991 145° Southeast  Level Estimated
11:16AM 38.6296 -84.7457 145° Southeast  Level Estimated
11:17AM 38.5703 -84.6925 145° Southeast  Level Estimated
11:18AM 38.5110 -84.6393 145° Southeast  Level Estimated
11:19AM 38.4516 -84.5863 145° Southeast  Level Estimated
11:20AM 38.3923 -84.5333 145° Southeast  Level Estimated
11:21AM 38.3329 -84.4804 145° Southeast  Level Estimated
11:22AM 38.2807 -84.4340 145° Southeast  Level Estimated
11:23AM 38.2286 -84.3878 145° Southeast  Level Estimated
11:24AM 38.1764 -84.3416 145° Southeast  Level Estimated
11:25AM 38.1243 -84.2955 145° Southeast  Level Estimated
11:26AM 38.0721 -84.2494 145° Southeast  Level Estimated
11:27AM 38.0199 -84.2034 145° Southeast  Level Estimated
11:28AM 37.9677 -84.1575 145° Southeast  Level Estimated
11:29AM 37.9154 -84.1116 145° Southeast  Level Estimated
11:30AM 37.8632 -84.0658 145° Southeast  Level Estimated
11:31AM 37.8109 -84.0201 145° Southeast  Level Estimated
11:32AM 37.7586 -83.9744 145° Southeast  Level Estimated
11:33AM 37.7062 -83.9288 145° Southeast  Level Estimated
11:34AM 37.6539 -83.8833 145° Southeast  Level Estimated
11:35AM 37.6016 -83.8378 145° Southeast  Level Estimated
11:36AM 37.5492 -83.7924 145° Southeast  Level Estimated
11:37AM 37.4968 -83.7470 146° Southeast  Level Estimated
11:38AM 37.4444 -83.7018 146° Southeast  Level Estimated
11:39AM 37.3920 -83.6565 146° Southeast  Level Estimated
11:40AM 37.3396 -83.6114 146° Southeast  Level Estimated
11:41AM 37.2871 -83.5663 146° Southeast  Level Estimated
11:42AM 37.2346 -83.5212 146° Southeast  Level Estimated
11:43AM 37.1821 -83.4763 146° Southeast  Level Estimated
11:44AM 37.1296 -83.4314 146° Southeast  Level Estimated
11:45AM 37.0771 -83.3865 146° Southeast  Level Estimated
11:46AM 37.0246 -83.3418 146° Southeast  Level Estimated
11:47AM 36.9720 -83.2970 146° Southeast  Level Estimated
11:48AM 36.9194 -83.2524 146° Southeast  Level Estimated
11:49AM 36.8669 -83.2078 146° Southeast  Level Estimated
11:50AM 36.8143 -83.1632 146° Southeast  Level Estimated
11:51AM 36.7616 -83.1188 146° Southeast  Level Estimated
11:52AM 36.7090 -83.0743 146° Southeast  Level Estimated
11:53AM 36.6563 -83.0300 146° Southeast  Level Estimated
11:54AM 36.6037 -82.9857 146° Southeast  Level Estimated
11:55AM 36.5510 -82.9415 146° Southeast  Level Estimated
11:56AM 36.4983 -82.8973 146° Southeast  Level Estimated
11:57AM 36.4455 -82.8532 146° Southeast  Level Estimated
11:58AM 36.3928 -82.8091 146° Southeast  Level Estimated
11:59AM 36.3401 -82.7652 146° Southeast  Level Estimated
12:00PM 36.2873 -82.7212 146° Southeast  Level Estimated
12:01PM 36.2345 -82.6774 146° Southeast  Level Estimated
12:02PM 36.1817 -82.6335 146° Southeast  Level Estimated
12:03PM 36.1289 -82.5898 146° Southeast  Level Estimated
12:04PM 36.0760 -82.5461 146° Southeast  Level Estimated
12:05PM 36.0232 -82.5024 146° Southeast  Level Estimated
12:06PM 35.9703 -82.4589 146° Southeast  Level Estimated
12:07PM 35.9175 -82.4153 146° Southeast  Level Estimated
12:08PM 35.8646 -82.3719 146° Southeast  Level Estimated
12:09PM 35.8116 -82.3285 146° Southeast  Level Estimated
12:10PM 35.7587 -82.2851 146° Southeast  Level Estimated
12:11PM 35.7058 -82.2418 146° Southeast  Level Estimated
12:12PM 35.6528 -82.1986 146° Southeast  Level Estimated
12:13PM 35.5998 -82.1554 146° Southeast  Level Estimated
12:14PM 35.5469 -82.1123 146° Southeast  Level Estimated
12:15PM 35.4939 -82.0693 147° Southeast  Level Estimated
12:16PM 35.4408 -82.0263 147° Southeast  Level Estimated
12:17PM 35.3878 -81.9833 147° Southeast  Level Estimated
12:18PM 35.3348 -81.9404 147° Southeast  Level Estimated
12:19PM 35.2817 -81.8976 147° Southeast  Level Estimated
12:20PM 35.2286 -81.8548 147° Southeast  Level Estimated
12:21PM 35.1755 -81.8121 147° Southeast  Level Estimated
12:22PM 35.1224 -81.7694 147° Southeast  Level Estimated
12:23PM 35.0693 -81.7268 147° Southeast  Level Estimated
12:24PM 35.0161 -81.6842 147° Southeast  Level Estimated
12:25PM 34.9630 -81.6417 147° Southeast  Level Estimated
12:26PM 34.9098 -81.5993 147° Southeast  Level Estimated
12:27PM 34.8566 -81.5569 147° Southeast  Level Estimated
12:28PM 34.8034 -81.5146 147° Southeast  Level Estimated
12:29PM 34.7502 -81.4723 147° Southeast  Level Estimated
12:30PM 34.6970 -81.4301 147° Southeast  Level Estimated
12:31PM 34.6438 -81.3879 147° Southeast  Level Estimated
12:32PM 34.5905 -81.3458 147° Southeast  Level Estimated
12:33PM 34.5372 -81.3037 147° Southeast  Level Estimated
12:34PM 34.4839 -81.2617 147° Southeast  Level Estimated
12:35PM 34.4306 -81.2197 147° Southeast  Level Estimated
12:36PM 34.3773 -81.1778 147° Southeast  Level Estimated
12:37PM 34.3240 -81.1360 147° Southeast  Level Estimated
12:38PM 34.2707 -81.0942 147° Southeast  Level Estimated
12:39PM 34.2173 -81.0525 147° Southeast  Level Estimated
12:40PM 34.1639 -81.0108 147° Southeast  Level Estimated
12:41PM 34.1105 -80.9691 147° Southeast  Level Estimated
12:42PM 34.0571 -80.9275 147° Southeast  Level Estimated
12:43PM 34.0037 -80.8860 147° Southeast  Level Estimated
12:44PM 33.9503 -80.8445 147° Southeast  Level Estimated
12:45PM 33.8969 -80.8031 147° Southeast  Level Estimated
12:46PM 33.8434 -80.7617 147° Southeast  Level Estimated
12:47PM 33.7899 -80.7204 147° Southeast  Level Estimated
12:48PM 33.7365 -80.6791 147° Southeast  Level Estimated
12:49PM 33.6829 -80.6379 147° Southeast  Level Estimated
12:50PM 33.6294 -80.5967 147° Southeast  Level Estimated
12:51PM 33.5759 -80.5556 147° Southeast  Level Estimated
12:52PM 33.5224 -80.5145 147° Southeast  Level Estimated
12:53PM 33.4688 -80.4735 147° Southeast  Level Estimated
12:54PM 33.4153 -80.4326 147° Southeast  Level Estimated
12:55PM 33.3617 -80.3916 147° Southeast  Level Estimated
12:56PM 33.3081 -80.3508 147° Southeast  Level Estimated
12:57PM 33.2545 -80.3100 148° Southeast  Level Estimated
12:58PM 33.2009 -80.2692 148° Southeast  Level Estimated
12:59PM 33.1472 -80.2285 148° Southeast  Level Estimated
01:00PM 33.0936 -80.1878 148° Southeast  Level Estimated
01:01PM 33.0399 -80.1472 148° Southeast  Level Estimated
01:02PM 32.9863 -80.1066 148° Southeast  Level Estimated
01:03PM 32.9326 -80.0661 148° Southeast  Level Estimated
01:04PM 32.8986 -80.0405 148° Southeast  Level Estimated
01:05PM 32.8986 -80.0405 121° Southeast  Level Estimated
01:06PM 32.8986 -80.0405 121° Southeast  Level Estimated
01:07PM 32.8986 -80.0405 121° Southeast  Level Estimated
01:08PM 32.8986 -80.0405 121° Southeast  Level Estimated
01:09PM 32.8986 -80.0405 121° Southeast  Level Estimated
01:10PM 32.8986 -80.0405 121° Southeast  Level Estimated
01:11PM 32.8986 -80.0405 121° Southeast  Level Estimated
01:12PM 32.8986 -80.0405 121° Southeast  Level Estimated
01:13PM 32.8986 -80.0405 121° Southeast  Level Estimated
01:14PM 32.8986 -80.0405 121° Southeast  Level Estimated
01:15PM 32.8986 -80.0405 121° Southeast  Level Estimated
01:16PM 32.8986 -80.0405 121° Southeast  Level Estimated
01:17PM 32.8986 -80.0405 121° Southeast  Level Estimated
01:18PM 32.8986 -80.0405 121° Southeast  Level Estimated
01:19PM 32.8986 -80.0405 121° Southeast  Level Estimated
01:20PM 32.8986 -80.0405 121° Southeast  Level Estimated
01:21PM 32.8986 -80.0405 121° Southeast  Level Estimated
01:22PM 32.8986 -80.0405 121° Southeast  Level Estimated
01:23PM 32.8986 -80.0405 121° Southeast  Level Estimated